Hauptseite
METAR-TAF:

METAR-TAF

Flughäfen :

Pohnpei, Mikronesien

Flughafen Pohnpei

Breite: 06-59N, Länge: 158-12E, Höhe: 2 m

Beobachtung

Neuester Wetterbericht von vor 9 Stunden und 20 Minuten, um 02:50 UTC
Wind 8 kt aus West/Nordwest
Temperatur 31°C
Luftfeuchtigkeit 71%
Luftdruck 1007 hPa
Sichtweite: 24.1 km
Aufgelockert bewölkt in der Höhe von 1800 ft
Aufgelockert bewölkt in der Höhe von 13000 ft
Durchbrochene Bewölkung in der Höhe von 30000 ft

METAR: PTPN 210250Z 29008KT 15SM SCT018 SCT130 BKN300 31/25 A2973 RMK LAST

Zeit: 23:10 (12:10 UTC)

Prognose

Neuester Wetterbericht von vor 12 Stunden und 34 Minuten, um 23:36 UTC
Gültige Prognose vom 21 um 00 UTC bis 21 um 24 UTC
Wind 6 kt aus unterschiedlichen Richtungen
Sichtweite: 10 km
Aufgelockert bewölkt in der Höhe von 1800 ft
Aufgelockert bewölkt in der Höhe von 13000 ft
Schauer in der Nähe

TAF: PTPN 202336Z 2100/2124 VRB06KT P6SM VCSH SCT018 SCT130

Wetterbeobachtungen und Prognosen von mehr als 4000 Flughäfen (METAR und TAF Bericht).

Die verfügbaren Stationen werden durch gelbe und rote Markierungen auf der Karte dargestellt.

Führen Sie die Maus auf sie, um den Namen der Station zu sehen.

Darauf klicken, um die Beobachtung von Wetterbeobachtungen und Prognosen zu sehen.

Um die Karte zu ändern : klicken Sie auf den grünen Tasten mit einem schwarzen Kreuz Zum Vergrößern, auf den grünen Button mit einem Gedankenstrich zu verkleinern, oder auf die grünen Pfeile für benachbarte Karten.


METAR-TAF: